Time;durP1;ratioP1;P1;durP2;ratioP2;P2;SDS_P1;SDS_P2;PMS_P1;PMS_P2;Temp;Humidity;BMP_temperature;BMP_pressure;BME280_temperature;BME280_humidity;BME280_pressure;Samples;Min_cycle;Max_cycle;Signal;HPM_P1;HPM_P2
2023/09/14 00:00:45;;;;;;;8.40;6.00;;;17.70;99.90;;;;;;5096649;28;20141;-64
2023/09/14 00:03:10;;;;;;;6.93;6.13;;;17.70;99.90;;;;;;5115206;28;20076;-64
2023/09/14 00:05:40;;;;;;;7.70;6.47;;;17.70;99.90;;;;;;5115138;28;20028;-64
2023/09/14 00:08:06;;;;;;;6.88;6.03;;;17.70;99.90;;;;;;5115078;28;20389;-64
2023/09/14 00:10:32;;;;;;;7.85;6.53;;;17.70;99.90;;;;;;5115032;28;20028;-64
2023/09/14 00:12:58;;;;;;;9.55;6.22;;;17.70;99.90;;;;;;5114722;28;20091;-64
2023/09/14 00:15:24;;;;;;;7.15;6.22;;;17.70;99.90;;;;;;5096770;28;20095;-64
2023/09/14 00:17:49;;;;;;;10.23;6.63;;;17.70;99.90;;;;;;5097447;28;20035;-64
2023/09/14 00:20:24;;;;;;;8.10;6.63;;;17.70;99.90;;;;;;5097047;28;20043;-64
2023/09/14 00:22:50;;;;;;;6.57;5.88;;;17.70;99.90;;;;;;5115795;28;20023;-64
2023/09/14 00:25:17;;;;;;;7.35;6.47;;;17.70;99.90;;;;;;5115607;28;20034;-64
2023/09/14 00:27:43;;;;;;;7.30;6.45;;;17.70;99.90;;;;;;5115313;28;20111;-64
2023/09/14 00:30:09;;;;;;;7.10;6.43;;;17.70;99.90;;;;;;5096681;28;20065;-64
2023/09/14 00:32:39;;;;;;;7.57;6.10;;;17.70;99.90;;;;;;5114373;28;20023;-63
2023/09/14 00:35:09;;;;;;;8.90;6.15;;;17.70;99.90;;;;;;5114537;28;20035;-64
2023/09/14 00:37:35;;;;;;;6.50;5.90;;;17.70;99.90;;;;;;5096199;28;20053;-64
2023/09/14 00:40:08;;;;;;;6.85;6.15;;;17.80;99.90;;;;;;5114647;28;20039;-63
2023/09/14 00:42:45;;;;;;;7.82;6.32;;;17.80;99.90;;;;;;5096409;28;20030;-63
2023/09/14 00:45:13;;;;;;;6.78;6.18;;;17.80;99.90;;;;;;5096415;28;20020;-63
2023/09/14 00:47:50;;;;;;;7.10;6.40;;;17.80;99.90;;;;;;5114265;28;20392;-63
2023/09/14 00:50:17;;;;;;;13.23;7.05;;;17.80;99.90;;;;;;5114481;28;20032;-64
2023/09/14 00:53:02;;;;;;;7.93;5.85;;;17.80;99.90;;;;;;5114316;28;20117;-63
2023/09/14 00:55:29;;;;;;;10.30;6.32;;;17.80;99.90;;;;;;5114253;28;20016;-64
2023/09/14 00:57:56;;;;;;;7.80;6.40;;;17.80;99.90;;;;;;5114307;28;20028;-63
2023/09/14 01:00:22;;;;;;;7.82;5.88;;;17.80;99.90;;;;;;5096222;28;20028;-63
2023/09/14 01:02:51;;;;;;;10.30;7.10;;;17.80;99.90;;;;;;5114300;28;20024;-63
2023/09/14 01:05:17;;;;;;;7.00;6.30;;;17.80;99.90;;;;;;5114527;28;20032;-64
2023/09/14 01:07:44;;;;;;;6.82;6.10;;;17.80;99.90;;;;;;5113175;28;20031;-64
2023/09/14 01:10:10;;;;;;;7.30;6.60;;;17.90;99.90;;;;;;5096099;28;20408;-64
2023/09/14 01:12:36;;;;;;;9.95;8.05;;;17.80;99.90;;;;;;5114237;28;20024;-63
2023/09/14 01:15:14;;;;;;;10.05;7.57;;;17.80;99.90;;;;;;5114188;28;20031;-64
2023/09/14 01:17:53;;;;;;;9.40;7.05;;;17.90;99.90;;;;;;5096830;28;20024;-64
2023/09/14 01:21:06;;;;;;;8.27;7.10;;;17.90;99.90;;;;;;5096848;28;20031;-64
2023/09/14 01:23:53;;;;;;;8.70;6.80;;;17.80;99.90;;;;;;5106392;28;20042;-64
2023/09/14 01:26:20;;;;;;;9.75;6.93;;;17.80;99.90;;;;;;5116931;28;20069;-64
2023/09/14 01:28:45;;;;;;;7.97;7.20;;;17.80;99.90;;;;;;5115983;28;20024;-67
2023/09/14 01:31:11;;;;;;;12.73;7.85;;;17.80;99.90;;;;;;5115879;28;20034;-64
2023/09/14 01:33:37;;;;;;;9.15;7.05;;;17.80;99.90;;;;;;5115140;28;20028;-63
2023/09/14 01:36:17;;;;;;;9.85;7.25;;;17.70;99.90;;;;;;5095975;28;20088;-63
2023/09/14 01:38:45;;;;;;;8.93;7.43;;;17.70;99.90;;;;;;5114062;28;20247;-64
2023/09/14 01:41:11;;;;;;;8.82;7.30;;;17.70;99.90;;;;;;5114142;28;20046;-63
2023/09/14 01:43:38;;;;;;;8.23;7.43;;;17.70;99.90;;;;;;5095707;28;20027;-63
2023/09/14 01:46:04;;;;;;;7.25;6.53;;;17.70;99.90;;;;;;5113843;28;20024;-63
2023/09/14 01:48:30;;;;;;;8.30;7.15;;;17.70;99.90;;;;;;5095538;28;20023;-64
2023/09/14 01:50:55;;;;;;;10.40;7.47;;;17.70;99.90;;;;;;5113730;28;20077;-64
2023/09/14 01:53:21;;;;;;;8.02;7.22;;;17.70;99.90;;;;;;5113916;28;20052;-64
2023/09/14 01:55:47;;;;;;;9.77;7.85;;;17.70;99.90;;;;;;5113581;28;20051;-64
2023/09/14 01:58:12;;;;;;;9.00;8.07;;;17.70;99.90;;;;;;5113433;28;20031;-64
2023/09/14 02:00:38;;;;;;;10.07;7.50;;;17.80;99.90;;;;;;5095424;28;20027;-63
2023/09/14 02:03:04;;;;;;;8.55;6.80;;;17.70;99.90;;;;;;5113659;28;20030;-64
2023/09/14 02:05:30;;;;;;;8.35;7.50;;;17.70;99.90;;;;;;5114069;28;20500;-63
2023/09/14 02:07:56;;;;;;;8.45;7.57;;;17.70;99.90;;;;;;5095317;28;20503;-64
2023/09/14 02:10:22;;;;;;;11.90;7.53;;;17.70;99.90;;;;;;5113848;28;20114;-64
2023/09/14 02:12:49;;;;;;;8.90;7.80;;;17.70;99.90;;;;;;5095286;28;20080;-63
2023/09/14 02:15:15;;;;;;;7.80;7.00;;;17.70;99.90;;;;;;5095813;28;20465;-64
2023/09/14 02:17:40;;;;;;;9.05;6.72;;;17.70;99.90;;;;;;5096314;28;20063;-64
2023/09/14 02:20:08;;;;;;;8.63;7.68;;;17.70;99.90;;;;;;5098833;28;20031;-64
2023/09/14 02:22:34;;;;;;;10.30;7.65;;;17.60;99.90;;;;;;5098809;28;20031;-64
2023/09/14 02:25:00;;;;;;;9.75;7.00;;;17.70;99.90;;;;;;5098637;28;20028;-64
2023/09/14 02:27:26;;;;;;;9.40;7.20;;;17.70;99.90;;;;;;5117320;28;20028;-64
2023/09/14 02:29:55;;;;;;;10.25;7.47;;;17.60;99.90;;;;;;5098790;28;20024;-64
2023/09/14 02:32:21;;;;;;;8.73;7.18;;;17.60;99.90;;;;;;5098852;28;20031;-64
2023/09/14 02:34:48;;;;;;;9.02;8.13;;;17.60;99.90;;;;;;5098352;28;20085;-64
2023/09/14 02:37:14;;;;;;;9.88;7.03;;;17.60;99.90;;;;;;5116841;28;20023;-65
2023/09/14 02:39:40;;;;;;;7.38;6.40;;;17.60;99.90;;;;;;5116757;28;20035;-64
2023/09/14 02:42:06;;;;;;;8.55;7.10;;;17.60;99.90;;;;;;5116795;28;20415;-64
2023/09/14 02:44:31;;;;;;;7.82;7.03;;;17.60;99.90;;;;;;5117349;28;20038;-64
2023/09/14 02:46:57;;;;;;;9.93;7.35;;;17.60;99.90;;;;;;5098703;28;20469;-64
2023/09/14 02:49:22;;;;;;;8.57;6.82;;;17.60;99.90;;;;;;5116342;28;20034;-64
2023/09/14 02:51:48;;;;;;;9.05;7.10;;;17.60;99.90;;;;;;5098569;28;20034;-64
2023/09/14 02:54:14;;;;;;;9.27;7.38;;;17.50;99.90;;;;;;5116915;28;20057;-64
2023/09/14 02:56:41;;;;;;;8.35;6.78;;;17.50;99.90;;;;;;5098158;28;20028;-64
2023/09/14 02:59:07;;;;;;;8.43;7.38;;;17.60;99.90;;;;;;5097993;28;20484;-64
2023/09/14 03:01:33;;;;;;;12.00;7.57;;;17.50;99.90;;;;;;5117029;28;20058;-64
2023/09/14 03:03:59;;;;;;;8.63;7.72;;;17.50;99.90;;;;;;5116343;28;20020;-64
2023/09/14 03:06:27;;;;;;;9.15;7.75;;;17.60;99.90;;;;;;5116524;28;20492;-64
2023/09/14 03:08:52;;;;;;;11.88;8.10;;;17.50;99.90;;;;;;5098224;28;20023;-64
2023/09/14 03:11:18;;;;;;;8.02;7.22;;;17.50;99.90;;;;;;5098010;28;20027;-63
2023/09/14 03:13:44;;;;;;;10.48;7.15;;;17.50;99.90;;;;;;5116169;28;20457;-64
2023/09/14 03:16:09;;;;;;;10.23;7.47;;;17.50;99.90;;;;;;5098008;28;20028;-64
2023/09/14 03:18:35;;;;;;;8.63;7.25;;;17.50;99.90;;;;;;5097965;28;20114;-64
2023/09/14 03:21:01;;;;;;;8.65;7.78;;;17.50;99.90;;;;;;5116188;28;20049;-63
2023/09/14 03:23:27;;;;;;;8.93;7.47;;;17.50;99.90;;;;;;5116417;28;20028;-63
2023/09/14 03:25:52;;;;;;;9.18;6.88;;;17.50;99.90;;;;;;5116115;28;20445;-63
2023/09/14 03:28:18;;;;;;;9.95;7.28;;;17.50;99.90;;;;;;5097518;28;20027;-63
2023/09/14 03:30:44;;;;;;;10.52;6.97;;;17.40;99.90;;;;;;5114765;28;20024;-63
2023/09/14 03:33:10;;;;;;;9.50;7.13;;;17.40;99.90;;;;;;5097552;28;20465;-63
2023/09/14 03:35:37;;;;;;;7.93;7.07;;;17.50;99.90;;;;;;5115673;28;20102;-63
2023/09/14 03:38:03;;;;;;;8.75;7.03;;;17.50;99.90;;;;;;5097329;28;20393;-64
2023/09/14 03:40:28;;;;;;;10.60;7.68;;;17.50;99.90;;;;;;5097487;28;20024;-64
2023/09/14 03:42:54;;;;;;;9.30;7.25;;;17.50;99.90;;;;;;5097540;28;20023;-64
2023/09/14 03:45:20;;;;;;;8.80;7.72;;;17.50;99.90;;;;;;5116006;28;20538;-64
2023/09/14 03:47:46;;;;;;;9.13;7.10;;;17.40;99.90;;;;;;5098409;28;20032;-64
2023/09/14 03:50:12;;;;;;;10.63;8.00;;;17.50;99.90;;;;;;5098176;28;20034;-64
2023/09/14 03:52:37;;;;;;;13.27;7.38;;;17.50;99.90;;;;;;5116359;28;20123;-64
2023/09/14 03:55:04;;;;;;;9.38;7.55;;;17.50;99.90;;;;;;5115709;28;20119;-65
2023/09/14 03:57:30;;;;;;;8.18;7.38;;;17.50;99.90;;;;;;5115227;28;20055;-66
2023/09/14 03:59:56;;;;;;;11.93;7.43;;;17.60;99.90;;;;;;5115127;28;20082;-65
2023/09/14 04:02:23;;;;;;;12.77;8.63;;;17.50;99.90;;;;;;5115007;28;20015;-65
2023/09/14 04:04:49;;;;;;;12.90;9.07;;;17.60;99.90;;;;;;5096970;28;20023;-65
2023/09/14 04:07:15;;;;;;;12.48;9.60;;;17.50;99.90;;;;;;5115099;28;20563;-65
2023/09/14 04:09:41;;;;;;;12.43;8.65;;;17.50;99.90;;;;;;5115326;28;20020;-66
2023/09/14 04:12:07;;;;;;;10.40;8.68;;;17.50;99.90;;;;;;5114691;28;20015;-65
2023/09/14 04:14:33;;;;;;;11.75;7.65;;;17.50;99.90;;;;;;5115173;28;20034;-65
2023/09/14 04:17:00;;;;;;;14.50;8.38;;;17.50;99.90;;;;;;5114859;28;20034;-64
2023/09/14 04:19:28;;;;;;;10.13;8.25;;;17.50;99.90;;;;;;5114581;28;20026;-65
2023/09/14 04:21:53;;;;;;;10.93;7.60;;;17.40;99.90;;;;;;5114569;28;20024;-66
2023/09/14 04:24:20;;;;;;;13.85;8.18;;;17.40;99.90;;;;;;5114646;28;20038;-66
2023/09/14 04:26:46;;;;;;;9.15;7.38;;;17.40;99.90;;;;;;5096714;28;20425;-66
2023/09/14 04:29:12;;;;;;;14.82;8.30;;;17.40;99.90;;;;;;5115032;28;20032;-66
2023/09/14 04:31:37;;;;;;;13.48;9.20;;;17.40;99.90;;;;;;5114676;28;20031;-66
2023/09/14 04:34:06;;;;;;;12.85;9.27;;;17.40;99.90;;;;;;5114099;28;20107;-67
2023/09/14 04:36:32;;;;;;;10.65;8.23;;;17.40;99.90;;;;;;5114547;28;20038;-66
2023/09/14 04:39:00;;;;;;;12.25;9.10;;;17.40;99.90;;;;;;5114417;28;20149;-67
2023/09/14 04:41:26;;;;;;;14.95;9.57;;;17.40;99.90;;;;;;5113927;28;20496;-66
2023/09/14 04:43:51;;;;;;;16.52;10.05;;;17.40;99.90;;;;;;5096070;28;20032;-66
2023/09/14 04:46:17;;;;;;;13.68;10.02;;;17.40;99.90;;;;;;5113850;28;20024;-66
2023/09/14 04:48:43;;;;;;;14.65;10.10;;;17.40;99.90;;;;;;5114029;28;20495;-66
2023/09/14 04:51:08;;;;;;;17.33;11.20;;;17.40;99.90;;;;;;5096263;28;20023;-67
2023/09/14 04:53:34;;;;;;;14.02;11.15;;;17.40;99.90;;;;;;5114582;28;20509;-66
2023/09/14 04:56:00;;;;;;;12.63;10.38;;;17.40;99.90;;;;;;5113871;28;20027;-66
2023/09/14 04:58:26;;;;;;;14.13;9.88;;;17.50;99.90;;;;;;5095809;28;20023;-66
2023/09/14 05:00:51;;;;;;;12.43;9.95;;;17.50;99.90;;;;;;5114058;28;20039;-66
2023/09/14 05:03:18;;;;;;;12.07;10.57;;;17.50;99.90;;;;;;5095849;28;20077;-66
2023/09/14 05:05:50;;;;;;;14.05;11.52;;;17.50;99.90;;;;;;5114406;28;20024;-66
2023/09/14 05:08:16;;;;;;;15.40;10.75;;;17.50;99.90;;;;;;5114195;28;20479;-66
2023/09/14 05:10:41;;;;;;;18.02;11.98;;;17.50;99.90;;;;;;5114365;28;20023;-66
2023/09/14 05:13:07;;;;;;;17.83;10.98;;;17.60;99.90;;;;;;5096021;28;20023;-66
2023/09/14 05:15:33;;;;;;;12.68;10.02;;;17.60;99.90;;;;;;5114600;28;20107;-66
2023/09/14 05:18:05;;;;;;;13.25;10.63;;;17.60;99.90;;;;;;5114326;28;20035;-66
2023/09/14 05:20:30;;;;;;;15.20;10.40;;;17.60;99.90;;;;;;5114208;28;20028;-66
2023/09/14 05:22:56;;;;;;;17.13;11.60;;;17.70;99.90;;;;;;5113641;28;20065;-67
2023/09/14 05:25:25;;;;;;;13.38;10.13;;;17.70;99.90;;;;;;5113453;28;20024;-66
2023/09/14 05:27:50;;;;;;;;;;;17.70;99.90;;;;;;5095803;28;20473;-66
2023/09/14 05:30:21;;;;;;;13.40;9.07;;;17.70;99.90;;;;;;5095565;28;19918;-66
2023/09/14 05:32:47;;;;;;;12.23;10.25;;;17.70;99.90;;;;;;5095787;28;20023;-65
2023/09/14 05:35:13;;;;;;;12.05;10.63;;;17.80;99.90;;;;;;5095502;28;20488;-65
2023/09/14 05:37:38;;;;;;;11.73;10.10;;;17.80;99.90;;;;;;5095470;28;20100;-65
2023/09/14 05:40:12;;;;;;;12.77;9.70;;;17.90;99.90;;;;;;5114005;28;20031;-65
2023/09/14 05:42:38;;;;;;;12.73;9.98;;;17.90;99.90;;;;;;5113697;28;20047;-65
2023/09/14 05:45:11;;;;;;;13.70;9.60;;;17.90;99.90;;;;;;5094939;28;20030;-65
2023/09/14 05:47:37;;;;;;;14.05;10.25;;;17.90;99.90;;;;;;5113850;28;20028;-66
2023/09/14 05:50:06;;;;;;;11.38;9.77;;;17.90;99.90;;;;;;5095388;28;20132;-67
2023/09/14 05:52:32;;;;;;;9.75;8.73;;;18.00;99.90;;;;;;5114192;28;20071;-66
2023/09/14 05:54:57;;;;;;;10.38;9.15;;;18.00;99.90;;;;;;5099440;28;20063;-66
2023/09/14 05:57:24;;;;;;;10.85;9.60;;;18.10;99.90;;;;;;5117624;28;20419;-66
2023/09/14 05:59:49;;;;;;;12.32;9.32;;;18.10;99.90;;;;;;5117607;28;20053;-65
2023/09/14 06:02:18;;;;;;;12.13;9.80;;;18.10;99.90;;;;;;5117416;28;20106;-65
2023/09/14 06:04:44;;;;;;;11.88;9.95;;;18.20;99.90;;;;;;5117270;28;20015;-65
2023/09/14 06:07:09;;;;;;;11.00;9.25;;;18.20;99.90;;;;;;5117201;28;20035;-65
2023/09/14 06:09:35;;;;;;;13.60;9.57;;;18.30;99.90;;;;;;5117519;28;20107;-65
2023/09/14 06:12:01;;;;;;;10.18;9.07;;;18.30;99.90;;;;;;5117302;28;20069;-65
2023/09/14 06:14:27;;;;;;;12.90;10.20;;;18.30;99.90;;;;;;5117307;28;20023;-65
2023/09/14 06:16:53;;;;;;;11.98;8.93;;;18.30;99.90;;;;;;5116679;28;20498;-65
2023/09/14 06:19:19;;;;;;;10.52;8.30;;;18.30;99.90;;;;;;5117321;28;20027;-59
2023/09/14 06:21:45;;;;;;;9.52;7.70;;;18.40;99.90;;;;;;5098879;28;20380;-59
2023/09/14 06:24:10;;;;;;;8.15;7.25;;;18.50;99.90;;;;;;5117016;28;20032;-59
2023/09/14 06:26:36;;;;;;;10.15;7.85;;;18.60;99.90;;;;;;5116707;28;20168;-59
2023/09/14 06:29:02;;;;;;;8.63;7.63;;;18.70;99.90;;;;;;5116537;28;20059;-58
2023/09/14 06:31:27;;;;;;;8.00;7.28;;;18.80;99.90;;;;;;5116454;28;20024;-59
2023/09/14 06:33:53;;;;;;;8.63;7.03;;;18.80;99.90;;;;;;5116789;28;20072;-58
2023/09/14 06:36:19;;;;;;;10.23;6.80;;;18.90;99.90;;;;;;5116580;28;20105;-60
2023/09/14 06:38:46;;;;;;;8.07;7.28;;;18.90;99.90;;;;;;5098222;28;20040;-58
2023/09/14 06:41:12;;;;;;;11.73;8.15;;;18.90;99.90;;;;;;5116605;28;20031;-58
2023/09/14 06:43:40;;;;;;;8.45;6.65;;;19.00;99.90;;;;;;5116250;28;20028;-58
2023/09/14 06:46:07;;;;;;;8.88;7.30;;;19.00;99.90;;;;;;5116536;28;20023;-58
2023/09/14 06:48:33;;;;;;;8.68;7.88;;;19.00;99.90;;;;;;5116725;28;20102;-59
2023/09/14 06:50:59;;;;;;;8.10;7.30;;;19.10;99.90;;;;;;5116841;28;20492;-59
2023/09/14 06:53:24;;;;;;;10.77;7.00;;;19.10;99.90;;;;;;5116978;28;20055;-62
2023/09/14 06:55:50;;;;;;;7.82;7.03;;;19.20;99.90;;;;;;5116362;28;20031;-59
2023/09/14 06:58:16;;;;;;;7.78;6.95;;;19.20;99.90;;;;;;5098739;28;20118;-58
2023/09/14 07:00:41;;;;;;;7.68;6.88;;;19.20;99.90;;;;;;5117380;28;20027;-59
2023/09/14 07:03:07;;;;;;;9.93;8.25;;;19.20;99.90;;;;;;5116288;28;20035;-58
2023/09/14 07:05:34;;;;;;;7.85;6.95;;;19.30;99.90;;;;;;5114664;28;20465;-58
2023/09/14 07:08:00;;;;;;;8.13;7.30;;;19.30;99.90;;;;;;5097838;28;20448;-58
2023/09/14 07:10:26;;;;;;;9.80;8.02;;;19.30;99.90;;;;;;5097732;28;20542;-58
2023/09/14 07:12:52;;;;;;;11.68;8.15;;;19.30;99.90;;;;;;5116068;28;20114;-58
2023/09/14 07:15:17;;;;;;;10.35;7.70;;;19.30;99.90;;;;;;5116333;28;20503;-58
2023/09/14 07:17:43;;;;;;;12.13;8.43;;;19.30;99.90;;;;;;5116197;28;20377;-59
2023/09/14 07:20:09;;;;;;;13.10;8.43;;;19.30;99.90;;;;;;5097488;28;20035;-58
2023/09/14 07:22:37;;;;;;;8.63;7.65;;;19.30;99.90;;;;;;5097375;28;20024;-59
2023/09/14 07:25:04;;;;;;;9.00;8.07;;;19.30;99.90;;;;;;5098147;28;20023;-58
2023/09/14 07:27:30;;;;;;;8.77;7.90;;;19.30;99.90;;;;;;5097719;28;20119;-58
2023/09/14 07:29:56;;;;;;;12.55;8.32;;;19.30;99.90;;;;;;5115711;28;20051;-58
2023/09/14 07:32:22;;;;;;;10.23;8.35;;;19.30;99.90;;;;;;5115723;28;20028;-58
2023/09/14 07:34:47;;;;;;;11.57;7.95;;;19.30;99.90;;;;;;5115563;28;20023;-58
2023/09/14 07:37:13;;;;;;;11.85;7.70;;;19.40;99.90;;;;;;5115160;28;20119;-58
2023/09/14 07:39:39;;;;;;;9.20;7.90;;;19.40;99.90;;;;;;5115518;28;20102;-58
2023/09/14 07:42:04;;;;;;;10.90;8.50;;;19.50;99.90;;;;;;5096795;28;20032;-58
2023/09/14 07:44:30;;;;;;;9.30;8.38;;;19.50;99.90;;;;;;5115739;28;20028;-58
2023/09/14 07:46:56;;;;;;;8.80;7.85;;;19.50;99.90;;;;;;5097175;28;20027;-58
2023/09/14 07:49:21;;;;;;;11.63;7.65;;;19.60;99.90;;;;;;5097000;28;20034;-58
2023/09/14 07:51:47;;;;;;;9.90;8.07;;;19.60;99.90;;;;;;5115322;28;20373;-59
2023/09/14 07:54:13;;;;;;;8.45;7.65;;;19.70;99.90;;;;;;5115286;28;20098;-58
2023/09/14 07:56:39;;;;;;;9.20;8.18;;;19.80;99.90;;;;;;5115146;28;20536;-59
2023/09/14 07:59:04;;;;;;;10.32;8.15;;;19.90;99.90;;;;;;5115701;28;20084;-59
2023/09/14 08:01:30;;;;;;;11.20;7.95;;;20.00;99.90;;;;;;5096972;28;20028;-59
2023/09/14 08:03:56;;;;;;;9.50;7.28;;;20.10;99.90;;;;;;5096698;28;20468;-59
2023/09/14 08:06:23;;;;;;;10.02;8.35;;;20.10;99.90;;;;;;5096469;28;20043;-59
2023/09/14 08:08:49;;;;;;;9.20;8.35;;;20.10;99.90;;;;;;5115104;28;20020;-59
2023/09/14 08:11:14;;;;;;;8.70;7.60;;;20.10;99.90;;;;;;5115015;28;20027;-59
2023/09/14 08:13:40;;;;;;;9.80;8.13;;;20.30;99.90;;;;;;5114904;28;20031;-59
2023/09/14 08:16:06;;;;;;;7.97;7.28;;;20.40;99.90;;;;;;5114169;28;20417;-59
2023/09/14 08:18:32;;;;;;;8.65;7.72;;;20.50;99.90;;;;;;5114820;28;20035;-59
2023/09/14 08:20:58;;;;;;;8.13;7.32;;;20.60;99.90;;;;;;5096563;28;20092;-59
2023/09/14 08:23:23;;;;;;;8.63;7.70;;;20.80;99.90;;;;;;5114757;28;20390;-59
2023/09/14 08:25:49;;;;;;;8.32;7.63;;;21.00;99.90;;;;;;5096346;28;20062;-59
2023/09/14 08:28:19;;;;;;;9.65;7.85;;;21.00;99.90;;;;;;5114658;28;20031;-59
2023/09/14 08:30:46;;;;;;;8.27;7.35;;;21.00;99.90;;;;;;5114677;28;20050;-59
2023/09/14 08:33:12;;;;;;;10.93;7.57;;;20.90;99.90;;;;;;5096385;28;20032;-59
2023/09/14 08:35:39;;;;;;;8.15;7.15;;;20.80;99.90;;;;;;5114579;28;20030;-58
2023/09/14 08:38:06;;;;;;;7.95;7.22;;;21.00;99.90;;;;;;5114528;28;20032;-59
2023/09/14 08:40:32;;;;;;;8.63;7.80;;;21.00;99.90;;;;;;5114654;28;20427;-58
2023/09/14 08:43:02;;;;;;;10.52;7.53;;;21.00;99.90;;;;;;5096365;28;20032;-59
2023/09/14 08:45:32;;;;;;;8.90;8.05;;;21.10;99.90;;;;;;5115052;28;20077;-58
2023/09/14 08:47:59;;;;;;;8.35;7.20;;;21.10;99.90;;;;;;5096651;28;20126;-58
2023/09/14 08:50:30;;;;;;;8.55;7.68;;;21.00;99.90;;;;;;5114072;28;20069;-58
2023/09/14 08:52:56;;;;;;;9.13;6.93;;;21.10;99.90;;;;;;5095995;28;20052;-58
2023/09/14 08:55:23;;;;;;;8.18;7.28;;;21.10;99.90;;;;;;5096145;28;20028;-58
2023/09/14 08:57:50;;;;;;;8.18;7.38;;;21.00;99.90;;;;;;5114194;28;20456;-58
2023/09/14 09:00:17;;;;;;;7.82;7.03;;;21.00;99.90;;;;;;5095574;28;20035;-58
2023/09/14 09:02:48;;;;;;;8.35;7.28;;;21.20;99.90;;;;;;5114158;28;20020;-58
2023/09/14 09:05:15;;;;;;;7.50;6.80;;;21.30;99.90;;;;;;5113884;28;20030;-58
2023/09/14 09:07:42;;;;;;;7.57;6.88;;;21.40;99.90;;;;;;5076205;28;20031;-58
2023/09/14 09:10:21;;;;;;;8.85;7.22;;;21.60;99.90;;;;;;5075318;28;20032;-58
2023/09/14 09:12:50;;;;;;;7.22;6.53;;;21.60;99.90;;;;;;5093684;28;20055;-58
2023/09/14 09:15:16;;;;;;;8.80;7.13;;;21.80;99.90;;;;;;5093883;28;20024;-58
2023/09/14 09:17:44;;;;;;;7.53;6.82;;;21.80;99.90;;;;;;5093657;28;20382;-58
2023/09/14 09:20:16;;;;;;;8.68;7.10;;;21.90;99.90;;;;;;5093825;28;20346;-58
2023/09/14 09:22:45;;;;;;;9.02;6.72;;;22.00;99.90;;;;;;5075223;28;20028;-59
2023/09/14 09:25:12;;;;;;;7.35;6.65;;;22.00;99.90;;;;;;5093980;28;20020;-58
2023/09/14 09:27:39;;;;;;;9.15;7.95;;;21.90;99.90;;;;;;5094559;28;20032;-58
2023/09/14 09:30:06;;;;;;;138.63;19.13;;;21.80;99.90;;;;;;5097657;28;20031;-60
2023/09/14 09:32:32;;;;;;;8.48;6.47;;;21.90;99.90;;;;;;5097693;28;20085;-58
2023/09/14 09:35:19;;;;;;;7.75;6.85;;;22.00;99.90;;;;;;5097654;28;20028;-60
2023/09/14 09:37:45;;;;;;;9.32;7.20;;;21.90;99.90;;;;;;5097697;28;20028;-58
2023/09/14 09:40:25;;;;;;;7.75;7.00;;;21.90;99.90;;;;;;5097261;28;20043;-58
2023/09/14 09:42:54;;;;;;;8.38;7.57;;;21.90;99.90;;;;;;5097767;28;20446;-58
2023/09/14 09:45:24;;;;;;;9.13;7.15;;;22.10;99.90;;;;;;5097112;28;20058;-58
2023/09/14 09:47:50;;;;;;;7.35;6.38;;;22.40;99.90;;;;;;5097213;28;20024;-58
2023/09/14 09:50:20;;;;;;;9.23;6.88;;;22.80;99.90;;;;;;5097312;28;20017;-56
2023/09/14 09:52:47;;;;;;;7.88;5.93;;;23.80;99.90;;;;;;5097461;28;20047;-56
2023/09/14 09:55:33;;;;;;;5.18;4.78;;;24.90;99.90;;;;;;5097083;28;20469;-58
2023/09/14 09:57:59;;;;;;;10.48;5.60;;;25.70;99.90;;;;;;5096549;28;20047;-58
2023/09/14 10:00:35;;;;;;;7.78;5.47;;;26.30;99.90;;;;;;5097148;28;20036;-58
2023/09/14 10:03:01;;;;;;;6.82;4.50;;;27.00;99.90;;;;;;5097334;28;20031;-58
2023/09/14 10:05:39;;;;;;;5.45;4.50;;;26.80;99.90;;;;;;5079137;28;20078;-58
2023/09/14 10:08:14;;;;;;;6.28;5.55;;;26.60;99.90;;;;;;5078865;28;20032;-58
2023/09/14 10:10:41;;;;;;;5.78;5.28;;;25.50;99.90;;;;;;5096942;28;20047;-55
2023/09/14 10:13:09;;;;;;;5.65;5.15;;;24.90;99.90;;;;;;5097012;28;20024;-56
2023/09/14 10:15:35;;;;;;;4.95;4.45;;;24.70;99.90;;;;;;5095578;28;20024;-57
2023/09/14 10:18:02;;;;;;;6.43;5.63;;;24.70;99.90;;;;;;5078504;28;20424;-56
2023/09/14 10:20:29;;;;;;;5.20;4.70;;;24.50;99.90;;;;;;5096629;28;20057;-56
2023/09/14 10:22:57;;;;;;;4.43;4.03;;;24.60;99.90;;;;;;5078458;28;20024;-56
2023/09/14 10:25:23;;;;;;;4.65;4.25;;;24.90;99.90;;;;;;5096362;28;20028;-57
2023/09/14 10:27:49;;;;;;;6.65;4.32;;;25.60;99.90;;;;;;5096944;28;20028;-56
2023/09/14 10:30:18;;;;;;;6.65;3.97;;;26.30;99.90;;;;;;5078384;28;20024;-57
2023/09/14 10:32:47;;;;;;;4.15;3.90;;;27.10;98.80;;;;;;5096501;28;20458;-57
2023/09/14 10:35:13;;;;;;;6.07;3.40;;;27.60;97.10;;;;;;5096464;28;20028;-56
2023/09/14 10:37:44;;;;;;;3.80;3.60;;;28.30;95.40;;;;;;5096348;28;20491;-56
2023/09/14 10:40:12;;;;;;;5.43;4.15;;;28.10;94.80;;;;;;5095124;28;20035;-56
2023/09/14 10:42:39;;;;;;;5.57;3.60;;;27.30;95.60;;;;;;5096295;28;20054;-63
2023/09/14 10:45:05;;;;;;;4.28;3.97;;;26.70;96.20;;;;;;5096428;28;20029;-65
2023/09/14 10:47:36;;;;;;;4.13;3.72;;;26.40;97.40;;;;;;5078056;28;20474;-63
2023/09/14 10:50:05;;;;;;;6.65;4.60;;;26.10;97.60;;;;;;5077954;28;20028;-57
2023/09/14 10:52:32;;;;;;;5.15;4.00;;;25.20;98.90;;;;;;5077761;28;20051;-57
2023/09/14 10:54:58;;;;;;;5.75;4.28;;;25.10;99.70;;;;;;5096054;28;20028;-57
2023/09/14 10:57:27;;;;;;;4.55;4.15;;;25.60;99.10;;;;;;5095929;28;20031;-58
2023/09/14 11:00:01;;;;;;;4.10;3.80;;;26.10;98.00;;;;;;5095936;28;20028;-56
2023/09/14 11:02:48;;;;;;;4.57;3.70;;;26.30;97.30;;;;;;5095997;28;20028;-58
2023/09/14 11:05:24;;;;;;;3.83;3.58;;;26.20;97.50;;;;;;5096417;28;20031;-63
2023/09/14 11:07:59;;;;;;;3.17;2.97;;;26.40;96.50;;;;;;5096453;28;20028;-63
2023/09/14 11:10:27;;;;;;;3.15;2.95;;;26.40;96.50;;;;;;5095766;28;20056;-63
2023/09/14 11:13:22;;;;;;;3.20;2.90;;;25.90;96.80;;;;;;5078100;28;20032;-63
2023/09/14 11:16:11;;;;;;;3.40;3.10;;;25.90;97.20;;;;;;5095350;28;20497;-63
2023/09/14 11:18:43;;;;;;;3.25;3.05;;;26.10;96.60;;;;;;5077532;28;20032;-63
2023/09/14 11:21:33;;;;;;;3.38;3.13;;;25.60;97.20;;;;;;5077725;28;20028;-63
2023/09/14 11:24:01;;;;;;;3.13;2.83;;;25.80;98.40;;;;;;5077016;28;20036;-63
2023/09/14 11:26:34;;;;;;;4.55;3.30;;;25.90;96.30;;;;;;5077300;28;20354;-63
2023/09/14 11:29:01;;;;;;;2.40;2.30;;;26.00;95.80;;;;;;5077304;28;20479;-63
2023/09/14 11:31:31;;;;;;;3.13;2.67;;;26.20;95.70;;;;;;5095996;28;20059;-63
2023/09/14 11:33:57;;;;;;;3.00;2.80;;;26.40;94.70;;;;;;5095739;28;20028;-63
2023/09/14 11:36:27;;;;;;;2.58;2.38;;;26.80;95.10;;;;;;5077401;28;20128;-64
2023/09/14 11:38:53;;;;;;;2.65;2.47;;;27.80;92.30;;;;;;5095004;28;20543;-63
2023/09/14 11:42:00;;;;;;;2.53;2.35;;;27.70;92.40;;;;;;5095154;28;20032;-63
2023/09/14 11:44:29;;;;;;;14.73;3.05;;;27.60;92.70;;;;;;5093929;28;20056;-63
2023/09/14 11:46:57;;;;;;;2.80;2.40;;;27.80;91.80;;;;;;5077285;28;20028;-63
2023/09/14 11:49:28;;;;;;;6.50;2.42;;;27.80;91.80;;;;;;5077664;28;20024;-63
2023/09/14 11:51:55;;;;;;;3.05;2.50;;;28.20;91.50;;;;;;5077859;28;20135;-64
2023/09/14 11:54:20;;;;;;;3.20;2.53;;;27.90;91.00;;;;;;5096089;28;20509;-64
2023/09/14 11:56:48;;;;;;;2.55;2.35;;;27.40;91.40;;;;;;5077424;28;20102;-64
2023/09/14 11:59:28;;;;;;;3.30;2.90;;;26.90;92.00;;;;;;5095532;28;20074;-63
2023/09/14 12:01:53;;;;;;;6.22;2.80;;;26.80;92.00;;;;;;5095107;28;20074;-63
2023/09/14 12:04:20;;;;;;;3.00;2.45;;;26.80;91.50;;;;;;5095220;28;20032;-63
2023/09/14 12:06:46;;;;;;;4.60;2.08;;;26.70;89.80;;;;;;5077305;28;20028;-65
2023/09/14 12:09:11;;;;;;;2.55;2.35;;;26.50;91.40;;;;;;5094824;28;20139;-63
2023/09/14 12:11:44;;;;;;;4.15;2.00;;;26.60;91.20;;;;;;5076796;28;20454;-63
2023/09/14 12:14:09;;;;;;;2.42;2.00;;;26.40;91.60;;;;;;5076320;28;20024;-63
2023/09/14 12:16:38;;;;;;;2.60;2.40;;;26.40;91.20;;;;;;5094581;28;20034;-64
2023/09/14 12:19:03;;;;;;;1.90;1.80;;;26.40;91.10;;;;;;5078520;28;20024;-66
2023/09/14 12:21:29;;;;;;;5.15;2.13;;;26.40;91.10;;;;;;5097284;28;20060;-63
2023/09/14 12:23:56;;;;;;;3.08;1.63;;;26.50;91.30;;;;;;5079137;28;20042;-64
2023/09/14 12:26:22;;;;;;;2.28;2.00;;;26.60;91.00;;;;;;5097159;28;20036;-63
2023/09/14 12:28:58;;;;;;;2.00;1.90;;;26.40;90.50;;;;;;5095101;28;20020;-63
2023/09/14 12:31:25;;;;;;;2.13;1.80;;;26.30;91.20;;;;;;5075885;28;20031;-63
2023/09/14 12:33:51;;;;;;;2.50;2.20;;;26.60;91.00;;;;;;5092382;28;20072;-63
2023/09/14 12:36:18;;;;;;;3.65;2.10;;;26.30;91.00;;;;;;5093880;28;20050;-63
2023/09/14 12:38:46;;;;;;;2.13;2.03;;;26.00;91.00;;;;;;5075905;28;20035;-63
2023/09/14 12:41:11;;;;;;;2.60;2.20;;;25.90;92.20;;;;;;5093923;28;20024;-63
2023/09/14 12:43:38;;;;;;;2.72;2.10;;;26.90;90.90;;;;;;5094220;28;20057;-63
2023/09/14 12:46:04;;;;;;;2.55;1.88;;;27.20;90.70;;;;;;5076289;28;20056;-63